Terminal Aerodrome Forecast
Issued by NWS

Home | Current Version | Previous Version | Text Only | Print | Product List | Glossary On
Versions: 1 2 3 4 5 6 7 8 9 10 11 12 13 14 15 16 17 18 19 20 21 22 23 24
000
FTUS43 KBIS 271100
TAFMOT
TAF
KMOT 271127Z 2712/2812 15005KT P6SM SCT007 SCT015
      TEMPO 2712/2715 BKN007 OVC015
     FM271500 16012KT P6SM BKN007 OVC012
     FM271700 17014KT 6SM -SN BR OVC007
     FM271900 17009KT 1SM -SN SCT008 OVC015
     FM280000 18010KT 5SM -SN BR OVC015
     FM280800 14010KT 4SM -SN BR OVC010=

USA.gov is the U.S. government's official web portal to all federal, state and local government web resources and services.